KRNH

Details ICAO KRNH
Name NEW RICHMOND RGNL
Region United States
Timezone America/Chicago (UTC-6.0)
Plans Departing 0
Arriving 2
Stats Elevation 996 ft / 304 m (AMSL)
Location 45.145180° -92.537672°
Runways 2
Magnetic Variation 0.408° W
Sunrise 2017-12-14 13:42:56 UTC / 2017-12-14 07:42:56 Local
Sunset 2017-12-14 22:29:46 UTC / 2017-12-14 16:29:46 Local
Advertisement - Login to hide

Runways

ID Width Length Bearing (true) Bearing (mag) Surface Threshold Offset Overrun Length
04 75 ft / 23 m 2,137 ft / 651 m 44.65° 45.06° Grass 0 ft / 0 m 0 ft / 0 m
14 75 ft / 23 m 4,002 ft / 1,220 m 143.15° 143.56° Asphalt 0 ft / 0 m 0 ft / 0 m
22 75 ft / 23 m 2,137 ft / 651 m 224.65° 225.06° Grass 0 ft / 0 m 0 ft / 0 m
32 75 ft / 23 m 4,002 ft / 1,220 m 323.15° 323.56° Asphalt 0 ft / 0 m 0 ft / 0 m

Map

Weather


0- 5 10 15 20 25 30 35+ Temperature / ° C

Clouds and Precipitation
Forecast for 2017-12-15 06:00 UTC. Updated 2 hours ago

Ground ~20,000 ft ~40,000 ft Winds

METAR

KRNH 150315Z AUTO 27005KT 10SM OVC020 M06/M10 A2998 RMK AO2 T10641096

TAF

TAF KRNH 142337Z 1500/1524 29006KT P6SM -SHSN OVC018 FM150300 29006KT P6SM OVC022 FM150800 29006KT P6SM BKN035 FM151200 29005KT P6SM BKN030 FM151600 23004KT P6SM -SHSN OVC015 FM152200 21004KT P6SM OVC020

Frequencies

Recorded 120.00 MHz AWOS 3
Approach 121.20 MHz MINNEAPOLIS APP/DEP
Unicom 122.97 MHz CTAF/UNICOM
Warning: Do not use this data for real-world aviation or navigation. No guarantee of current accuracy is given.